createdAt,value
2017-08-25T03:52:00.216Z,14.24
2017-08-25T03:53:00.211Z,14.27
2017-08-25T03:54:00.099Z,14.27
2017-08-25T03:55:00.094Z,14.24
2017-08-25T03:56:00.085Z,14.20
2017-08-25T03:57:00.084Z,14.21
2017-08-25T03:58:00.070Z,14.25
2017-08-25T03:59:00.170Z,14.21
2017-08-25T04:00:00.059Z,14.15
2017-08-25T04:01:00.051Z,14.22
2017-08-25T04:02:00.043Z,14.21
2017-08-25T04:03:00.039Z,14.20
2017-08-25T04:04:00.030Z,14.14
2017-08-25T04:05:00.123Z,14.21
2017-08-25T04:06:00.015Z,14.20
2017-08-25T04:07:00.009Z,14.10
2017-08-25T04:08:00.001Z,14.10
2017-08-25T04:08:59.994Z,14.17
2017-08-25T04:09:59.985Z,14.20
2017-08-25T04:11:00.279Z,14.15
2017-08-25T04:11:59.974Z,14.10
2017-08-25T04:12:59.964Z,14.15
2017-08-25T04:13:59.959Z,14.03
2017-08-25T04:14:59.950Z,14.00
2017-08-25T04:15:59.943Z,14.06
2017-08-25T04:17:00.040Z,14.03
2017-08-25T04:17:59.930Z,14.14
2017-08-25T04:18:59.921Z,14.17
2017-08-25T04:19:59.916Z,14.14
2017-08-25T04:20:59.906Z,14.10
2017-08-25T04:21:59.899Z,14.02
2017-08-25T04:23:00.144Z,14.14
2017-08-25T04:23:59.885Z,14.00
2017-08-25T04:24:59.878Z,14.06
2017-08-25T04:25:59.871Z,14.06
2017-08-25T04:26:59.864Z,14.07
2017-08-25T04:27:59.857Z,14.02
2017-08-25T04:28:59.957Z,14.07
2017-08-25T04:29:59.841Z,13.99
2017-08-25T04:30:59.836Z,14.03
2017-08-25T04:31:59.828Z,14.06
2017-08-25T04:32:59.820Z,14.02
2017-08-25T04:33:59.814Z,14.02
2017-08-25T04:34:59.905Z,14.03
2017-08-25T04:35:59.801Z,13.99
2017-08-25T04:36:59.793Z,13.95
2017-08-25T04:37:59.784Z,14.03
2017-08-25T04:38:59.776Z,13.95
2017-08-25T04:39:59.771Z,14.07
2017-08-25T04:40:59.868Z,14.06
2017-08-25T04:41:59.755Z,14.06
2017-08-25T04:42:59.747Z,14.03
2017-08-25T04:43:59.742Z,14.06
2017-08-25T04:44:59.739Z,14.02
2017-08-25T04:45:59.732Z,14.03
2017-08-25T04:46:59.820Z,14.00
2017-08-25T04:47:59.713Z,14.02
2017-08-25T04:48:59.705Z,14.04
2017-08-25T04:49:59.696Z,14.06
2017-08-25T04:50:59.689Z,14.02
2017-08-25T04:51:59.681Z,14.04
2017-08-25T04:52:59.773Z,14.04
2017-08-25T04:53:59.668Z,14.07
2017-08-25T04:54:59.662Z,14.14
2017-08-25T04:55:59.652Z,14.06
2017-08-25T04:56:59.646Z,14.04
2017-08-25T04:57:59.637Z,14.02
2017-08-25T04:58:59.733Z,14.03
2017-08-25T04:59:59.624Z,14.18
2017-08-25T05:00:59.615Z,14.03
2017-08-25T05:01:59.609Z,14.10
2017-08-25T05:02:59.603Z,14.17
2017-08-25T05:03:59.595Z,14.14
2017-08-25T05:04:59.690Z,14.18
2017-08-25T05:05:59.579Z,14.10
2017-08-25T05:06:59.572Z,14.14
2017-08-25T05:07:59.565Z,14.14
2017-08-25T05:08:59.563Z,14.21
2017-08-25T05:09:59.550Z,14.15
2017-08-25T05:10:59.643Z,14.27
2017-08-25T05:11:59.536Z,14.14
2017-08-25T05:12:59.530Z,14.18
2017-08-25T05:13:59.521Z,14.25
2017-08-25T05:14:59.513Z,14.29
2017-08-25T05:15:59.507Z,14.20
2017-08-25T05:16:59.599Z,14.27
2017-08-25T05:17:59.493Z,14.28
2017-08-25T05:18:59.486Z,14.24
2017-08-25T05:19:59.476Z,14.32
2017-08-25T05:20:59.469Z,14.29
2017-08-25T05:21:59.463Z,14.33
2017-08-25T05:22:59.559Z,14.28
2017-08-25T05:23:59.450Z,14.27
2017-08-25T05:24:59.441Z,14.33
2017-08-25T05:25:59.434Z,14.36
2017-08-25T05:26:59.433Z,14.32
2017-08-25T05:27:59.421Z,14.32
2017-08-25T05:28:59.664Z,14.28
2017-08-25T05:29:59.407Z,14.29
2017-08-25T05:30:59.417Z,14.29
2017-08-25T05:31:59.395Z,14.37
2017-08-25T05:32:59.381Z,14.39
2017-08-25T05:33:59.377Z,14.40
2017-08-25T05:34:59.470Z,14.54
2017-08-25T05:35:59.376Z,14.46
2017-08-25T05:36:59.356Z,14.73
2017-08-25T05:37:59.349Z,14.86
2017-08-25T05:38:59.343Z,14.91
2017-08-25T05:39:59.335Z,15.06
2017-08-25T05:40:59.627Z,15.20
2017-08-25T05:41:59.320Z,15.39
2017-08-25T05:42:59.316Z,15.50
2017-08-25T05:43:59.307Z,15.68
2017-08-25T05:44:59.299Z,15.87
2017-08-25T05:45:59.293Z,15.97
2017-08-25T05:46:59.388Z,16.08
2017-08-25T05:47:59.286Z,16.15
2017-08-25T05:48:59.272Z,16.08
2017-08-25T05:49:59.267Z,16.17
2017-08-25T05:50:59.263Z,16.15
2017-08-25T05:51:59.256Z,16.23
2017-08-25T05:52:59.350Z,16.35
2017-08-25T05:53:59.244Z,16.28
2017-08-25T05:54:59.238Z,16.34
2017-08-25T05:55:59.230Z,16.45
2017-08-25T05:56:59.222Z,16.35
2017-08-25T05:57:59.217Z,16.35
2017-08-25T05:58:59.311Z,16.35
2017-08-25T05:59:59.207Z,16.30
2017-08-25T06:00:59.198Z,16.41
2017-08-25T06:01:59.192Z,16.48
2017-08-25T06:02:59.186Z,16.48
2017-08-25T06:03:59.180Z,16.31
2017-08-25T06:05:02.378Z,16.35
2017-08-25T06:05:59.186Z,16.30
2017-08-25T06:06:59.165Z,16.43
2017-08-25T06:07:59.181Z,16.45
2017-08-25T06:08:59.151Z,16.52
2017-08-25T06:09:59.203Z,16.66
2017-08-25T06:10:59.239Z,16.86
2017-08-25T06:11:59.137Z,16.97
2017-08-25T06:12:59.134Z,17.08
2017-08-25T06:13:59.123Z,17.21
2017-08-25T06:14:59.122Z,17.22
2017-08-25T06:15:59.114Z,17.33
2017-08-25T06:16:59.358Z,17.48
2017-08-25T06:17:59.103Z,17.46
2017-08-25T06:18:59.096Z,17.55
2017-08-25T06:19:59.091Z,17.77
2017-08-25T06:20:59.086Z,17.75
2017-08-25T06:21:59.080Z,17.86
2017-08-25T06:22:59.177Z,18.05
2017-08-25T06:23:59.072Z,18.18
2017-08-25T06:24:59.066Z,18.30
2017-08-25T06:25:59.060Z,18.42
2017-08-25T06:26:59.057Z,18.44
2017-08-25T06:27:59.050Z,18.57
2017-08-25T06:28:59.147Z,18.72
2017-08-25T06:29:59.048Z,18.80
2017-08-25T06:30:59.040Z,19.02
2017-08-25T06:31:59.033Z,19.32
2017-08-25T06:32:59.026Z,19.48
2017-08-25T06:33:59.024Z,19.76
2017-08-25T06:34:59.118Z,20.06
2017-08-25T06:35:59.012Z,20.50
2017-08-25T06:36:59.121Z,20.99
2017-08-25T06:37:59.003Z,21.38
2017-08-25T06:38:59.000Z,22.03
2017-08-25T06:39:58.996Z,22.54
2017-08-25T06:40:58.992Z,23.05
2017-08-25T06:41:58.987Z,23.39
2017-08-25T06:42:59.084Z,23.94
2017-08-25T06:43:58.981Z,24.46
2017-08-25T06:44:58.978Z,24.71
2017-08-25T06:45:58.973Z,25.28
2017-08-25T06:46:58.973Z,25.57
2017-08-25T06:47:59.073Z,25.97
2017-08-25T06:48:59.069Z,26.47
2017-08-25T06:49:58.968Z,26.85
2017-08-25T06:50:58.966Z,27.31
2017-08-25T06:51:58.967Z,27.67
2017-08-25T06:52:58.966Z,27.75
2017-08-25T06:53:58.969Z,27.67
2017-08-25T06:54:59.071Z,27.37
2017-08-25T06:55:58.971Z,27.10
2017-08-25T06:56:58.974Z,26.92
2017-08-25T06:57:58.975Z,26.57
2017-08-25T06:58:58.980Z,25.94
2017-08-25T06:59:58.985Z,25.51
2017-08-25T07:00:59.091Z,24.81
2017-08-25T07:01:58.994Z,24.55
2017-08-25T07:02:59.098Z,24.25
2017-08-25T07:03:59.006Z,23.75
2017-08-25T07:04:59.010Z,23.19
2017-08-25T07:05:59.018Z,22.67
2017-08-25T07:06:59.129Z,22.39
2017-08-25T07:07:59.035Z,21.96
2017-08-25T07:08:59.042Z,21.68
2017-08-25T07:09:59.051Z,21.47
2017-08-25T07:10:59.060Z,21.31
2017-08-25T07:11:59.068Z,21.22
2017-08-25T07:12:59.175Z,21.28
2017-08-25T07:13:59.084Z,21.16
2017-08-25T07:14:59.096Z,21.09
2017-08-25T07:15:59.106Z,21.13
2017-08-25T07:16:59.114Z,21.31
2017-08-25T07:17:59.125Z,21.56
2017-08-25T07:18:59.235Z,21.67
2017-08-25T07:19:59.148Z,21.92
2017-08-25T07:20:59.157Z,22.12
2017-08-25T07:21:59.169Z,22.42
2017-08-25T07:22:59.179Z,22.65
2017-08-25T07:23:59.191Z,22.62
2017-08-25T07:24:59.301Z,22.65
2017-08-25T07:25:59.215Z,22.62
2017-08-25T07:26:59.225Z,22.54
2017-08-25T07:27:59.241Z,22.35
2017-08-25T07:28:59.246Z,22.28
2017-08-25T07:29:59.257Z,22.30
2017-08-25T07:30:59.368Z,22.37
2017-08-25T07:31:59.279Z,22.40
2017-08-25T07:32:59.287Z,22.24
2017-08-25T07:33:59.298Z,22.22
2017-08-25T07:34:59.308Z,22.10
2017-08-25T07:35:59.318Z,22.22
2017-08-25T07:36:59.426Z,22.17
2017-08-25T07:37:59.335Z,22.21
2017-08-25T07:38:59.345Z,22.18
2017-08-25T07:39:59.353Z,22.00
2017-08-25T07:40:59.359Z,22.03
2017-08-25T07:41:59.370Z,22.05
2017-08-25T07:42:59.475Z,21.86
2017-08-25T07:43:59.382Z,21.72
2017-08-25T07:44:59.389Z,21.64
2017-08-25T07:45:59.395Z,21.59
2017-08-25T07:46:59.401Z,21.58
2017-08-25T07:47:59.508Z,21.43
2017-08-25T07:48:59.519Z,21.46
2017-08-25T07:49:59.417Z,21.53
2017-08-25T07:50:59.422Z,21.52
2017-08-25T07:51:59.429Z,21.52
2017-08-25T07:52:59.430Z,21.58
2017-08-25T07:53:59.435Z,21.35
2017-08-25T07:54:59.544Z,21.46
2017-08-25T07:55:59.543Z,21.58
2017-08-25T07:56:59.445Z,21.64
2017-08-25T07:57:59.457Z,21.69
2017-08-25T07:58:59.453Z,21.72
2017-08-25T07:59:59.456Z,21.71
2017-08-25T08:00:59.757Z,21.67
2017-08-25T08:01:59.561Z,21.75
2017-08-25T08:02:59.463Z,21.84
2017-08-25T08:03:59.466Z,21.91
2017-08-25T08:04:59.467Z,21.91
2017-08-25T08:05:59.473Z,22.09
2017-08-25T08:06:59.571Z,22.15
2017-08-25T08:07:59.479Z,22.12
2017-08-25T08:08:59.475Z,22.15
2017-08-25T08:09:59.726Z,22.20
2017-08-25T08:10:59.479Z,22.15
2017-08-25T08:11:59.481Z,22.07
2017-08-25T08:12:59.582Z,22.05
2017-08-25T08:13:59.484Z,22.06
2017-08-25T08:14:59.484Z,22.12
2017-08-25T08:15:59.486Z,22.00
2017-08-25T08:16:59.488Z,22.09
2017-08-25T08:17:59.740Z,22.05
2017-08-25T08:18:59.589Z,21.98
2017-08-25T08:19:59.491Z,22.02
2017-08-25T08:20:59.490Z,22.00
2017-08-25T08:21:59.493Z,21.91
2017-08-25T08:22:59.496Z,21.90
2017-08-25T08:23:59.496Z,21.77
2017-08-25T08:24:59.793Z,21.69
2017-08-25T08:25:59.494Z,21.62
2017-08-25T08:26:59.495Z,21.68
2017-08-25T08:27:59.497Z,21.62
2017-08-25T08:28:59.496Z,21.86
2017-08-25T08:29:59.497Z,21.84
2017-08-25T08:30:59.597Z,21.64
2017-08-25T08:31:59.498Z,21.65
2017-08-25T08:32:59.495Z,21.69
2017-08-25T08:33:59.501Z,21.75
2017-08-25T08:34:59.598Z,21.96
2017-08-25T08:35:59.502Z,22.05
2017-08-25T08:36:59.798Z,21.94
2017-08-25T08:37:59.501Z,21.91
2017-08-25T08:38:59.501Z,21.92
2017-08-25T08:39:59.498Z,21.91
2017-08-25T08:40:59.601Z,22.15
2017-08-25T08:41:59.499Z,22.25
2017-08-25T08:42:59.601Z,22.18
2017-08-25T08:43:59.501Z,22.22
2017-08-25T08:44:59.502Z,22.31
2017-08-25T08:45:59.499Z,22.24
2017-08-25T08:46:59.499Z,22.30
2017-08-25T08:47:59.498Z,22.28
2017-08-25T08:48:59.600Z,22.30
2017-08-25T08:49:59.501Z,22.35
2017-08-25T08:50:59.499Z,22.24
2017-08-25T08:51:59.501Z,22.33
2017-08-25T08:52:59.500Z,22.25
2017-08-25T08:53:59.601Z,22.24
2017-08-25T08:54:59.499Z,22.17
2017-08-25T08:55:59.600Z,22.14
2017-08-25T08:56:59.501Z,22.20
2017-08-25T08:57:59.500Z,22.18
2017-08-25T08:58:59.499Z,22.22
2017-08-25T08:59:59.499Z,22.25
2017-08-25T09:00:59.499Z,22.27
2017-08-25T09:01:59.607Z,22.33
2017-08-25T09:02:59.500Z,22.33
2017-08-25T09:03:59.500Z,22.33
2017-08-25T09:04:59.499Z,22.37
2017-08-25T09:05:59.500Z,22.33
2017-08-25T09:06:59.597Z,22.36
2017-08-25T09:07:59.497Z,22.43
2017-08-25T09:08:59.598Z,22.43
2017-08-25T09:09:59.496Z,22.43
2017-08-25T09:10:59.496Z,22.46
2017-08-25T09:11:59.500Z,22.58
2017-08-25T09:12:59.495Z,22.57
2017-08-25T09:13:59.495Z,22.57
2017-08-25T09:14:59.745Z,22.62
2017-08-25T09:15:59.595Z,22.61
2017-08-25T09:16:59.495Z,22.77
2017-08-25T09:17:59.496Z,22.90
2017-08-25T09:18:59.498Z,22.92
2017-08-25T09:19:59.494Z,22.94
2017-08-25T09:20:59.594Z,22.97
2017-08-25T09:21:59.492Z,23.07
2017-08-25T09:22:59.493Z,23.27
2017-08-25T09:23:59.492Z,23.22
2017-08-25T09:24:59.491Z,23.17
2017-08-25T09:25:59.492Z,23.07
2017-08-25T09:26:59.593Z,23.17
2017-08-25T09:27:59.492Z,23.16
2017-08-25T09:28:59.490Z,23.42
2017-08-25T09:29:59.491Z,23.28
2017-08-25T09:30:59.594Z,23.22
2017-08-25T09:31:59.494Z,23.22
2017-08-25T09:32:59.792Z,23.22
2017-08-25T09:33:59.492Z,23.28
2017-08-25T09:34:59.493Z,23.47
2017-08-25T09:35:59.492Z,23.76
2017-08-25T09:36:59.491Z,23.85
2017-08-25T09:37:59.493Z,23.84
2017-08-25T09:38:59.746Z,23.84
2017-08-25T09:39:59.592Z,23.76
2017-08-25T09:40:59.492Z,23.42
2017-08-25T09:41:59.492Z,23.33
2017-08-25T09:42:59.491Z,23.28
2017-08-25T09:43:59.492Z,23.36
2017-08-25T09:44:59.791Z,23.53
2017-08-25T09:45:59.492Z,23.55
2017-08-25T09:46:59.492Z,23.61
2017-08-25T09:47:59.491Z,23.51
2017-08-25T09:48:59.491Z,23.61
2017-08-25T09:49:59.492Z,23.66
2017-08-25T09:50:59.598Z,23.68
2017-08-25T09:51:59.493Z,23.87
2017-08-25T09:52:59.489Z,24.15
2017-08-25T09:53:59.491Z,24.08
2017-08-25T09:54:59.495Z,24.16
2017-08-25T09:55:59.493Z,23.97
2017-08-25T09:56:59.593Z,24.09
2017-08-25T09:57:59.492Z,24.27
2017-08-25T09:58:59.494Z,24.18
2017-08-25T09:59:59.495Z,24.09
2017-08-25T10:00:59.493Z,24.15
2017-08-25T10:01:59.494Z,24.03
2017-08-25T10:02:59.595Z,24.08
2017-08-25T10:03:59.495Z,24.09
2017-08-25T10:04:59.494Z,24.20
2017-08-25T10:05:59.493Z,24.40
2017-08-25T10:06:59.495Z,24.34
2017-08-25T10:07:59.498Z,24.45
2017-08-25T10:08:59.745Z,24.30
2017-08-25T10:09:59.496Z,24.13
2017-08-25T10:10:59.497Z,24.08
2017-08-25T10:11:59.497Z,24.15
2017-08-25T10:12:59.496Z,24.21
2017-08-25T10:13:59.498Z,24.06
2017-08-25T10:14:59.597Z,24.05
2017-08-25T10:15:59.502Z,24.08
2017-08-25T10:16:59.498Z,24.06
2017-08-25T10:17:59.497Z,24.10
2017-08-25T10:18:59.499Z,24.10
2017-08-25T10:19:59.501Z,23.98
2017-08-25T10:20:59.599Z,23.98
2017-08-25T10:21:59.500Z,24.05
2017-08-25T10:22:59.502Z,24.02
2017-08-25T10:23:59.504Z,23.93
2017-08-25T10:24:59.501Z,23.98
2017-08-25T10:25:59.696Z,23.98
2017-08-25T10:26:59.602Z,24.12
2017-08-25T10:27:59.503Z,24.21
2017-08-25T10:28:59.502Z,24.21
2017-08-25T10:29:59.505Z,24.28
2017-08-25T10:30:59.504Z,24.42
2017-08-25T10:31:59.506Z,24.50
2017-08-25T10:32:59.606Z,24.62
2017-08-25T10:33:59.507Z,24.71
2017-08-25T10:34:59.505Z,24.57
2017-08-25T10:35:59.506Z,24.58
2017-08-25T10:36:59.505Z,24.60
2017-08-25T10:37:59.507Z,24.62
2017-08-25T10:38:59.609Z,24.69
2017-08-25T10:39:59.507Z,24.62
2017-08-25T10:40:59.507Z,24.67
2017-08-25T10:41:59.510Z,24.78
2017-08-25T10:42:59.510Z,24.60
2017-08-25T10:43:59.509Z,24.55
2017-08-25T10:44:59.811Z,24.46
2017-08-25T10:45:59.513Z,24.50
2017-08-25T10:46:59.511Z,24.53
2017-08-25T10:47:59.514Z,24.65
2017-08-25T10:48:59.512Z,24.88
2017-08-25T10:49:59.512Z,25.00
2017-08-25T10:50:59.614Z,25.08
2017-08-25T10:51:59.515Z,25.08
2017-08-25T10:52:59.515Z,25.23
2017-08-25T10:53:59.516Z,25.28
2017-08-25T10:54:59.519Z,25.23
2017-08-25T10:55:59.518Z,25.13
2017-08-25T10:56:59.618Z,25.10
2017-08-25T10:57:59.521Z,24.90
2017-08-25T10:58:59.519Z,24.91
2017-08-25T10:59:59.521Z,24.85
2017-08-25T11:00:59.524Z,24.84
2017-08-25T11:01:59.523Z,24.85
2017-08-25T11:02:59.623Z,24.91
2017-08-25T11:03:59.524Z,24.84
2017-08-25T11:04:59.525Z,24.83
2017-08-25T11:05:59.526Z,24.84
2017-08-25T11:06:59.528Z,24.77
2017-08-25T11:07:59.528Z,24.85
2017-08-25T11:08:59.628Z,24.84
2017-08-25T11:09:59.531Z,25.03
2017-08-25T11:10:59.530Z,25.13
2017-08-25T11:11:59.530Z,25.15
2017-08-25T11:12:59.534Z,25.20
2017-08-25T11:13:59.533Z,25.35
2017-08-25T11:14:59.633Z,25.38
2017-08-25T11:15:59.535Z,25.25
2017-08-25T11:16:59.536Z,25.36
2017-08-25T11:17:59.542Z,25.35
2017-08-25T11:18:59.537Z,25.45
2017-08-25T11:19:59.538Z,25.42
2017-08-25T11:20:59.638Z,25.55
2017-08-25T11:21:59.541Z,25.38
2017-08-25T11:22:59.542Z,25.51
2017-08-25T11:23:59.541Z,25.46
2017-08-25T11:24:59.541Z,25.50
2017-08-25T11:25:59.644Z,25.52
2017-08-25T11:26:59.644Z,25.54
2017-08-25T11:27:59.548Z,25.61
2017-08-25T11:28:59.547Z,25.47
2017-08-25T11:29:59.546Z,25.58
2017-08-25T11:30:59.548Z,25.51
2017-08-25T11:31:59.551Z,25.46
2017-08-25T11:32:59.649Z,25.72
2017-08-25T11:33:59.551Z,25.76
2017-08-25T11:34:59.554Z,25.90
2017-08-25T11:35:59.554Z,25.97
2017-08-25T11:36:59.552Z,26.09
2017-08-25T11:37:59.556Z,26.10
2017-08-25T11:38:59.658Z,26.10
2017-08-25T11:39:59.558Z,26.02
2017-08-25T11:40:59.559Z,26.18
2017-08-25T11:41:59.563Z,26.18
2017-08-25T11:42:59.562Z,26.15
2017-08-25T11:43:59.564Z,25.98
2017-08-25T11:44:59.664Z,25.94
2017-08-25T11:45:59.565Z,25.95
2017-08-25T11:46:59.569Z,26.01
2017-08-25T11:47:59.571Z,25.94
2017-08-25T11:48:59.569Z,25.72
2017-08-25T11:49:59.577Z,25.58
2017-08-25T11:50:59.673Z,25.36
2017-08-25T11:51:59.576Z,25.36
2017-08-25T11:52:59.574Z,25.20
2017-08-25T11:53:59.582Z,25.21
2017-08-25T11:54:59.579Z,25.03
2017-08-25T11:55:59.579Z,25.23
2017-08-25T11:56:59.681Z,25.17
2017-08-25T11:57:59.580Z,25.09
2017-08-25T11:58:59.581Z,25.06
2017-08-25T11:59:59.582Z,25.15
2017-08-25T12:00:59.585Z,25.21
2017-08-25T12:01:59.584Z,25.50
2017-08-25T12:02:59.687Z,25.58
2017-08-25T12:03:59.587Z,25.57
2017-08-25T12:04:59.587Z,25.52
2017-08-25T12:05:59.589Z,25.47
2017-08-25T12:06:59.591Z,25.51
2017-08-25T12:07:59.592Z,25.50
2017-08-25T12:08:59.690Z,25.60
2017-08-25T12:09:59.593Z,25.62
2017-08-25T12:10:59.595Z,25.65
2017-08-25T12:11:59.597Z,25.67
2017-08-25T12:12:59.596Z,25.67
2017-08-25T12:13:59.698Z,25.79
2017-08-25T12:14:59.699Z,25.97
2017-08-25T12:15:59.603Z,26.15
2017-08-25T12:16:59.599Z,26.39
2017-08-25T12:17:59.601Z,26.37
2017-08-25T12:18:59.604Z,26.29
2017-08-25T12:19:59.606Z,26.23
2017-08-25T12:20:59.904Z,26.32
2017-08-25T12:21:59.606Z,26.39
2017-08-25T12:22:59.607Z,26.50
2017-08-25T12:23:59.609Z,26.39
2017-08-25T12:24:59.612Z,26.32
2017-08-25T12:25:59.610Z,26.07
2017-08-25T12:26:59.864Z,26.07
2017-08-25T12:27:59.613Z,26.09
2017-08-25T12:28:59.615Z,26.12
2017-08-25T12:29:59.622Z,26.12
2017-08-25T12:30:59.620Z,26.20
2017-08-25T12:31:59.620Z,26.18
2017-08-25T12:32:59.720Z,26.25
2017-08-25T12:33:59.624Z,26.10
2017-08-25T12:34:59.623Z,26.26
2017-08-25T12:35:59.628Z,26.43
2017-08-25T12:36:59.626Z,26.45
2017-08-25T12:37:59.629Z,26.75
2017-08-25T12:38:59.729Z,26.92
2017-08-25T12:39:59.631Z,27.12
2017-08-25T12:40:59.634Z,27.46
2017-08-25T12:41:59.636Z,27.44
2017-08-25T12:42:59.636Z,27.50
2017-08-25T12:43:59.638Z,27.66
2017-08-25T12:44:59.739Z,27.62
2017-08-25T12:45:59.641Z,27.50
2017-08-25T12:46:59.643Z,27.51
2017-08-25T12:47:59.645Z,27.41
2017-08-25T12:48:59.647Z,27.44
2017-08-25T12:49:59.649Z,27.43
2017-08-25T12:50:59.750Z,27.54
2017-08-25T12:51:59.655Z,27.54
2017-08-25T12:52:59.654Z,27.54
2017-08-25T12:53:59.658Z,27.50
2017-08-25T12:54:59.659Z,27.39
2017-08-25T12:55:59.661Z,27.43
2017-08-25T12:56:59.763Z,27.37
2017-08-25T12:57:59.665Z,27.27
2017-08-25T12:58:59.668Z,27.29
2017-08-25T12:59:59.669Z,27.39
2017-08-25T13:00:59.673Z,27.46
2017-08-25T13:01:59.675Z,27.41
2017-08-25T13:02:59.777Z,27.40
2017-08-25T13:03:59.680Z,27.36
2017-08-25T13:04:59.681Z,27.44
2017-08-25T13:05:59.682Z,27.41
2017-08-25T13:06:59.686Z,27.27
2017-08-25T13:07:59.689Z,27.29
2017-08-25T13:08:59.791Z,27.40
2017-08-25T13:09:59.714Z,27.36
2017-08-25T13:10:59.696Z,27.57
2017-08-25T13:11:59.697Z,27.66
2017-08-25T13:12:59.698Z,27.77
2017-08-25T13:13:59.699Z,27.87
2017-08-25T13:15:00.003Z,27.97
2017-08-25T13:15:59.704Z,28.11
2017-08-25T13:16:59.706Z,28.14
2017-08-25T13:17:59.707Z,28.25
2017-08-25T13:18:59.712Z,28.40
2017-08-25T13:19:59.715Z,28.17
2017-08-25T13:20:59.817Z,28.09
2017-08-25T13:21:59.722Z,28.00
2017-08-25T13:22:59.720Z,27.94
2017-08-25T13:23:59.725Z,27.93
2017-08-25T13:24:59.826Z,27.90
2017-08-25T13:25:59.728Z,27.93
2017-08-25T13:26:59.833Z,28.12
2017-08-25T13:27:59.734Z,28.07
2017-08-25T13:28:59.738Z,28.09
2017-08-25T13:29:59.742Z,27.75
2017-08-25T13:30:59.744Z,27.72
2017-08-25T13:31:59.745Z,27.81
2017-08-25T13:32:59.849Z,27.69
2017-08-25T13:33:59.752Z,27.75
2017-08-25T13:34:59.754Z,27.79
2017-08-25T13:35:59.761Z,27.75
2017-08-25T13:36:59.757Z,27.69
2017-08-25T13:37:59.762Z,27.72
2017-08-25T13:38:59.865Z,27.84
2017-08-25T13:39:59.868Z,27.70
2017-08-25T13:40:59.767Z,27.77
2017-08-25T13:41:59.771Z,27.85
2017-08-25T13:42:59.774Z,27.93
2017-08-25T13:43:59.776Z,27.99
2017-08-25T13:44:59.776Z,27.92
2017-08-25T13:45:59.881Z,27.81
2017-08-25T13:46:59.785Z,27.78
2017-08-25T13:47:59.786Z,27.82
2017-08-25T13:48:59.787Z,27.81
2017-08-25T13:49:59.791Z,27.79
2017-08-25T13:50:59.793Z,27.79
2017-08-25T13:51:59.898Z,27.78
2017-08-25T13:52:59.918Z,27.79
2017-08-25T13:53:59.800Z,27.79
2017-08-25T13:54:59.805Z,27.85
2017-08-25T13:55:59.806Z,27.87
2017-08-25T13:56:59.809Z,27.85
2017-08-25T13:57:59.810Z,27.87
2017-08-25T13:58:59.916Z,27.94
2017-08-25T13:59:59.814Z,27.90
2017-08-25T14:00:59.817Z,27.90
2017-08-25T14:01:59.821Z,27.88
2017-08-25T14:02:59.824Z,27.90
2017-08-25T14:03:59.827Z,27.92
2017-08-25T14:04:59.927Z,27.92
2017-08-25T14:05:59.830Z,27.85
2017-08-25T14:06:59.836Z,27.74
2017-08-25T14:07:59.837Z,27.50
2017-08-25T14:08:59.840Z,27.37
2017-08-25T14:09:59.838Z,27.32
2017-08-25T14:10:59.941Z,27.47
2017-08-25T14:11:59.844Z,27.59
2017-08-25T14:12:59.847Z,27.50
2017-08-25T14:13:59.849Z,27.55
2017-08-25T14:14:59.853Z,27.59
2017-08-25T14:15:59.858Z,27.55
2017-08-25T14:16:59.955Z,27.47
2017-08-25T14:17:59.874Z,27.41
2017-08-25T14:18:59.860Z,27.47
2017-08-25T14:19:59.862Z,27.39
2017-08-25T14:20:59.864Z,27.39
2017-08-25T14:21:59.868Z,27.39
2017-08-25T14:22:59.972Z,27.36
2017-08-25T14:23:59.876Z,27.40
2017-08-25T14:24:59.874Z,27.39
2017-08-25T14:25:59.876Z,27.31
2017-08-25T14:26:59.880Z,27.07
2017-08-25T14:27:59.881Z,27.04
2017-08-25T14:28:59.983Z,27.10
2017-08-25T14:29:59.887Z,27.14
2017-08-25T14:30:59.888Z,27.13
2017-08-25T14:31:59.891Z,27.24
2017-08-25T14:32:59.891Z,27.28
2017-08-25T14:33:59.895Z,27.17
2017-08-25T14:35:00.000Z,27.34
2017-08-25T14:35:59.900Z,27.32
2017-08-25T14:36:59.901Z,27.29
2017-08-25T14:37:59.904Z,27.24
2017-08-25T14:38:59.909Z,27.22
2017-08-25T14:39:59.908Z,27.19
2017-08-25T14:41:00.010Z,27.22
2017-08-25T14:41:59.913Z,27.24
2017-08-25T14:42:59.913Z,27.24
2017-08-25T14:43:59.918Z,27.29
2017-08-25T14:45:00.018Z,27.37
2017-08-25T14:45:59.920Z,27.40
2017-08-25T14:47:00.021Z,27.43
2017-08-25T14:47:59.924Z,27.40
2017-08-25T14:48:59.926Z,27.31
2017-08-25T14:49:59.928Z,27.36
2017-08-25T14:50:59.932Z,27.27
2017-08-25T14:51:59.931Z,27.29
2017-08-25T14:53:00.034Z,27.22
2017-08-25T14:53:59.935Z,27.17
2017-08-25T14:54:59.944Z,27.13
2017-08-25T14:55:59.941Z,27.09
2017-08-25T14:56:59.942Z,27.10
2017-08-25T14:57:59.945Z,27.04
2017-08-25T14:59:00.048Z,27.04
2017-08-25T14:59:59.949Z,27.03
2017-08-25T15:00:59.951Z,26.91
2017-08-25T15:01:59.952Z,26.92
2017-08-25T15:02:59.954Z,26.84
2017-08-25T15:03:59.957Z,26.82
2017-08-25T15:05:00.058Z,26.75
2017-08-25T15:06:00.261Z,26.75
2017-08-25T15:06:59.964Z,26.76
2017-08-25T15:07:59.976Z,26.69
2017-08-25T15:08:59.966Z,26.67
2017-08-25T15:09:59.967Z,26.62
2017-08-25T15:11:00.072Z,26.51
2017-08-25T15:11:59.973Z,26.50
2017-08-25T15:12:59.975Z,26.45
2017-08-25T15:13:59.975Z,26.40
2017-08-25T15:14:59.979Z,26.39
2017-08-25T15:15:59.980Z,26.36
2017-08-25T15:17:00.081Z,26.37
2017-08-25T15:17:59.984Z,26.25
2017-08-25T15:18:59.984Z,26.13
2017-08-25T15:19:59.999Z,26.13
2017-08-25T15:20:59.987Z,26.13
2017-08-25T15:21:59.991Z,25.98
2017-08-25T15:23:00.092Z,25.97
2017-08-25T15:23:59.993Z,26.01
2017-08-25T15:24:59.995Z,25.97
2017-08-25T15:25:59.997Z,25.98
2017-08-25T15:26:59.997Z,25.95
2017-08-25T15:27:59.999Z,25.97
2017-08-25T15:29:00.101Z,25.94
2017-08-25T15:30:00.005Z,25.97
2017-08-25T15:31:00.004Z,25.88
2017-08-25T15:32:00.004Z,25.91
2017-08-25T15:33:00.006Z,25.94
2017-08-25T15:34:00.006Z,25.90
2017-08-25T15:35:00.110Z,25.88
2017-08-25T15:36:00.010Z,25.90
2017-08-25T15:37:00.037Z,25.79
2017-08-25T15:38:00.122Z,25.85
2017-08-25T15:39:00.016Z,25.79
2017-08-25T15:40:00.016Z,25.80
2017-08-25T15:41:00.319Z,25.70
2017-08-25T15:42:00.020Z,25.67
2017-08-25T15:43:00.025Z,25.72
2017-08-25T15:44:00.019Z,25.60
2017-08-25T15:45:00.020Z,25.60
2017-08-25T15:46:00.021Z,25.51
2017-08-25T15:47:00.325Z,25.52
2017-08-25T15:48:00.025Z,25.54
2017-08-25T15:49:00.025Z,25.47
2017-08-25T15:50:00.029Z,25.42
2017-08-25T15:51:00.029Z,25.39
2017-08-25T15:52:00.028Z,25.39
2017-08-25T15:53:00.130Z,25.39
2017-08-25T15:54:00.033Z,25.24
2017-08-25T15:55:00.032Z,25.23
2017-08-25T15:56:00.034Z,25.20
2017-08-25T15:57:00.033Z,25.21
2017-08-25T15:58:00.035Z,25.15
2017-08-25T15:59:00.138Z,25.09
2017-08-25T16:00:00.046Z,25.00
2017-08-25T16:01:00.039Z,24.98
2017-08-25T16:02:00.039Z,24.96
2017-08-25T16:03:00.046Z,24.83
2017-08-25T16:04:00.042Z,24.91
2017-08-25T16:05:00.140Z,24.83
2017-08-25T16:06:00.042Z,24.81
2017-08-25T16:07:00.043Z,24.81
2017-08-25T16:08:00.045Z,24.77
2017-08-25T16:09:00.045Z,24.77
2017-08-25T16:10:00.048Z,24.64
2017-08-25T16:11:00.148Z,24.68
2017-08-25T16:12:00.051Z,24.67
2017-08-25T16:13:00.047Z,24.55
2017-08-25T16:14:00.050Z,24.53
2017-08-25T16:15:00.209Z,24.57
2017-08-25T16:16:00.052Z,24.50
2017-08-25T16:17:00.165Z,24.52
2017-08-25T16:18:00.053Z,24.50
2017-08-25T16:19:00.054Z,24.39
2017-08-25T16:20:00.053Z,24.35
2017-08-25T16:21:00.056Z,24.37
2017-08-25T16:22:00.358Z,24.39
2017-08-25T16:23:00.155Z,24.42
2017-08-25T16:24:00.057Z,24.49
2017-08-25T16:25:00.210Z,24.47
2017-08-25T16:26:00.057Z,24.40
2017-08-25T16:27:00.187Z,24.34
2017-08-25T16:28:00.212Z,24.34
2017-08-25T16:29:00.465Z,24.35
2017-08-25T16:30:00.063Z,24.34
2017-08-25T16:31:00.060Z,24.37
2017-08-25T16:32:00.061Z,24.39
2017-08-25T16:33:00.062Z,24.35
2017-08-25T16:34:00.064Z,24.30
2017-08-25T16:35:00.313Z,24.28
2017-08-25T16:36:00.064Z,24.21
2017-08-25T16:37:00.165Z,24.22
2017-08-25T16:38:00.065Z,24.18
2017-08-25T16:39:00.065Z,24.20
2017-08-25T16:40:00.068Z,24.25
2017-08-25T16:41:00.167Z,24.09
2017-08-25T16:42:01.268Z,24.12
2017-08-25T16:43:00.068Z,24.05
2017-08-25T16:44:00.176Z,24.09